Terminal Aerodrome Forecast
Issued by NWS

Home | Current Version | Previous Version | Text Only | Print | Product List | Glossary On
Versions: 1 2 3 4 5 6 7 8 9 10 11 12 13 14 15 16 17 18 19 20 21 22 23 24 25 26 27 28 29 30 31 32 33 34
000
FTUS45 KGJT 211133
TAFDRO
TAF
KDRO 211133Z 2112/2212 VRB03KT P6SM OVC040
     FM211500 VRB03KT P6SM FEW060 SCT250
     FM212100 25006KT P6SM SCT250
     FM220300 01005KT P6SM BKN070
     FM220900 17006KT P6SM BKN060
     FM221000 10005KT P6SM BKN060=

USA.gov is the U.S. government's official web portal to all federal, state and local government web resources and services.